Terminal Aerodrome Forecast
Issued by NWS Pueblo, CO

Home | Current Version | Previous Version | Text Only | Print | Product List | Glossary On
Versions: 1 2 3 4 5 6 7 8 9 10 11 12 13 14 15 16 17 18 19 20 21
000
FTUS45 KPUB 212321
TAFCOS
TAF
KCOS 212321Z 2200/2224 VRB06KT P6SM VCSH SCT070 BKN120
     FM220500 34010KT P6SM SCT050 BKN150
     FM221500 34007KT P6SM FEW090 SCT200
     FM221900 17007KT P6SM SCT200=

USA.gov is the U.S. government's official web portal to all federal, state and local government web resources and services.